Terminal Aerodrome Forecast
Issued by NWS Boston, MA

Home | Current Version | Previous Version | Text Only | Print | Product List | Glossary On
Versions: 1 2 3 4 5 6 7 8 9 10 11 12 13 14 15 16 17 18 19 20 21 22 23 24 25 26 27 28 29 30 31 32 33 34 35 36 37 38 39 40 41 42 43 44 45 46 47 48 49 50
213
FTUS41 KBOX 231516 AAA
TAFBOS
TAF AMD
KBOS 231516Z 2315/2418 09005KT P6SM FEW025
     FM231700 14009KT P6SM VCSH BKN025
     FM231900 15009KT P6SM VCSH OVC025
     FM232200 16009KT P6SM -RA OVC015
     FM240400 22007KT 3SM BR OVC008
     FM240600 24008KT P6SM OVC008
     FM240900 26009KT P6SM BKN050=

USA.gov is the U.S. government's official web portal to all federal, state and local government web resources and services.